Hakozaki Maru — JJ3662 — position and weather

sailwx.info

Track history (hours):
 
Tides and Currents Weather Stations Pressure Air Temp Water Temp Dewpoint Dewpoint Depression Visibility Wind Speed Wind Dir Waves Ship Positions

Hakozaki Maru

Last reported at 2014-Oct-31 06:23 UTC. Time now 2014-Nov-01 01:08 UTC.
Position N 34°41' E 135°13'.

Length 31 m; draft 2.5 m.

Type: Tug. MMSI: 431000322.

Date/timePositionNaut miles runAvg speedWind from/ knotsBaromVisibWave heightAir tempDewpointWater temp
2014-Oct-31 06:23N 34°41' E 135°13'2 2.8
2014-Oct-31 05:33N 34°40' E 135°15'3 2.6
2014-Oct-31 04:33N 34°41' E 135°12'0 0.0
2014-Oct-31 03:33N 34°41' E 135°12'0 0.0
2014-Oct-31 02:33N 34°41' E 135°12'0 0.0
2014-Oct-31 01:33N 34°41' E 135°12'0 0.0
2014-Oct-31 00:33N 34°41' E 135°12'0 0.1
2014-Oct-30 23:33N 34°41' E 135°12'1 1.3
2014-Oct-30 22:33N 34°41' E 135°14'0 0.2
2014-Oct-30 21:33N 34°41' E 135°14'1 1.3
2014-Oct-30 20:33N 34°41' E 135°12'1 0.1
2014-Oct-30 09:08N 34°40' E 135°14'0 0.6
2014-Oct-30 08:33N 34°40' E 135°14'0 0.1
2014-Oct-30 07:33N 34°40' E 135°14'1 1.5
2014-Oct-30 06:33N 34°41' E 135°12'0 0.0
2014-Oct-30 05:33N 34°41' E 135°12'0 0.0
2014-Oct-30 04:33N 34°41' E 135°12'0 0.0
2014-Oct-30 03:33N 34°41' E 135°12'0 0.0
2014-Oct-30 02:33N 34°41' E 135°12'0 0.0
2014-Oct-30 01:33N 34°41' E 135°12'1 1.2
2014-Oct-30 00:33N 34°40' E 135°12'1 0.5
2014-Oct-29 23:33N 34°40' E 135°12'2 1.7
2014-Oct-29 22:33N 34°40' E 135°14'0 0.3
2014-Oct-29 21:33N 34°41' E 135°14'1 1.5
2014-Oct-29 20:33N 34°41' E 135°12'2 0.1
2014-Oct-29 08:27N 34°42' E 135°14'2 2.3
2014-Oct-29 07:33N 34°42' E 135°17'3 3.5
2014-Oct-29 06:33N 34°41' E 135°13'1 0.9
2014-Oct-29 05:33N 34°41' E 135°14'1 1.3
2014-Oct-29 04:33N 34°41' E 135°12'0 0.0
2014-Oct-29 03:33N 34°41' E 135°12'0 0.0
2014-Oct-29 02:33N 34°41' E 135°12'0 0.1
2014-Oct-29 01:33N 34°41' E 135°12'0 0.0
2014-Oct-29 00:33N 34°41' E 135°12'2 2.0
2014-Oct-28 23:34N 34°42' E 135°14'3 2.8
2014-Oct-28 22:33N 34°41' E 135°18'2 1.9
2014-Oct-28 21:33N 34°42' E 135°16'3 3.0
2014-Oct-28 20:33N 34°41' E 135°12'3 0.2
2014-Oct-28 05:33N 34°42' E 135°15'2 2.2
2014-Oct-28 04:33N 34°40' E 135°15'1 1.3
2014-Oct-28 03:33N 34°41' E 135°15'0 0.3
2014-Oct-28 02:33N 34°41' E 135°15'0 0.0
2014-Oct-28 01:33N 34°41' E 135°15'0 0.3
2014-Oct-28 00:33N 34°41' E 135°15'2 1.8
2014-Oct-27 23:33N 34°41' E 135°17'2 1.5
2014-Oct-27 22:33N 34°40' E 135°18'5 4.9
2014-Oct-27 21:32N 34°41' E 135°12'0 0.0
2014-Oct-27 20:33N 34°41' E 135°12'0 0.0
2014-Oct-27 06:14N 34°41' E 135°12'0 0.0
2014-Oct-27 05:33N 34°41' E 135°12'0 0.0
2014-Oct-27 04:33N 34°41' E 135°12'0 0.0
2014-Oct-27 03:33N 34°41' E 135°12'0 0.0
2014-Oct-27 02:33N 34°41' E 135°12'0 0.1
2014-Oct-27 01:33N 34°41' E 135°12'3 2.6
2014-Oct-27 00:34N 34°40' E 135°15'1 1.0
2014-Oct-26 23:33N 34°40' E 135°14'0 0.4
2014-Oct-26 22:33N 34°40' E 135°14'1 0.7
2014-Oct-26 21:33N 34°41' E 135°14'1 1.3
2014-Oct-26 20:34N 34°41' E 135°12'0 0.0
2014-Oct-26 04:32N 34°41' E 135°12'3 3.0
2014-Oct-26 03:33N 34°42' E 135°16'2 2.2
2014-Oct-26 02:33N 34°41' E 135°18'4 4.5
2014-Oct-26 01:33N 34°41' E 135°12'0 0.2
2014-Oct-26 00:33N 34°41' E 135°12'0 0.0
2014-Oct-25 23:33N 34°41' E 135°12'  
2014-Oct-23 02:33N 34°41' E 135°12'0 0.0
2014-Oct-23 01:33N 34°41' E 135°12'0 0.5
2014-Oct-23 00:33N 34°41' E 135°13'2 1.7
2014-Oct-22 23:33N 34°40' E 135°15'2 2.1
2014-Oct-22 22:33N 34°41' E 135°12'0 0.0
2014-Oct-22 21:33N 34°41' E 135°12'0 0.0
2014-Oct-22 06:11N 34°41' E 135°12'0 0.0
2014-Oct-22 05:33N 34°41' E 135°12'1 1.3
2014-Oct-22 04:34N 34°41' E 135°14'3 3.4
2014-Oct-22 03:33N 34°41' E 135°18'3 2.8
2014-Oct-22 02:34N 34°41' E 135°15'2 1.9
2014-Oct-22 01:33N 34°41' E 135°12'0 0.0
2014-Oct-22 00:33N 34°41' E 135°12'0 0.0
2014-Oct-21 23:33N 34°41' E 135°12'2 1.9
2014-Oct-21 22:33N 34°40' E 135°14'0 0.5
2014-Oct-21 21:34N 34°40' E 135°14'2 1.9
2014-Oct-21 20:34N 34°41' E 135°12'3 0.3
2014-Oct-21 09:25N 34°41' E 135°16'1 1.5
2014-Oct-21 08:33N 34°42' E 135°16'3 2.9
2014-Oct-21 07:33N 34°41' E 135°13'0 0.0
2014-Oct-21 06:33N 34°41' E 135°13'  
Track history (hours):
 
Tides and Currents Weather Stations Pressure Air Temp Water Temp Dewpoint Dewpoint Depression Visibility Wind Speed Wind Dir Waves Ship Positions

Hakozaki Maru

Last reported at 2014-Oct-31 06:23 UTC. Time now 2014-Nov-01 01:08 UTC.
Position N 34°41' E 135°13'.

Length 31 m; draft 2.5 m.

Type: Tug. MMSI: 431000322.

Date/timePositionNaut miles runAvg speedWind from/ knotsBaromVisibWave heightAir tempDewpointWater temp
2014-Oct-31 06:23N 34°41' E 135°13'2 2.8
2014-Oct-31 05:33N 34°40' E 135°15'3 2.6
2014-Oct-31 04:33N 34°41' E 135°12'0 0.0
2014-Oct-31 03:33N 34°41' E 135°12'0 0.0
2014-Oct-31 02:33N 34°41' E 135°12'0 0.0
2014-Oct-31 01:33N 34°41' E 135°12'0 0.0
2014-Oct-31 00:33N 34°41' E 135°12'0 0.1
2014-Oct-30 23:33N 34°41' E 135°12'1 1.3
2014-Oct-30 22:33N 34°41' E 135°14'0 0.2
2014-Oct-30 21:33N 34°41' E 135°14'1 1.3
2014-Oct-30 20:33N 34°41' E 135°12'1 0.1
2014-Oct-30 09:08N 34°40' E 135°14'0 0.6
2014-Oct-30 08:33N 34°40' E 135°14'0 0.1
2014-Oct-30 07:33N 34°40' E 135°14'1 1.5
2014-Oct-30 06:33N 34°41' E 135°12'0 0.0
2014-Oct-30 05:33N 34°41' E 135°12'0 0.0
2014-Oct-30 04:33N 34°41' E 135°12'0 0.0
2014-Oct-30 03:33N 34°41' E 135°12'0 0.0
2014-Oct-30 02:33N 34°41' E 135°12'0 0.0
2014-Oct-30 01:33N 34°41' E 135°12'1 1.2
2014-Oct-30 00:33N 34°40' E 135°12'1 0.5
2014-Oct-29 23:33N 34°40' E 135°12'2 1.7
2014-Oct-29 22:33N 34°40' E 135°14'0 0.3
2014-Oct-29 21:33N 34°41' E 135°14'1 1.5
2014-Oct-29 20:33N 34°41' E 135°12'2 0.1
2014-Oct-29 08:27N 34°42' E 135°14'2 2.3
2014-Oct-29 07:33N 34°42' E 135°17'3 3.5
2014-Oct-29 06:33N 34°41' E 135°13'1 0.9
2014-Oct-29 05:33N 34°41' E 135°14'1 1.3
2014-Oct-29 04:33N 34°41' E 135°12'0 0.0
2014-Oct-29 03:33N 34°41' E 135°12'0 0.0
2014-Oct-29 02:33N 34°41' E 135°12'0 0.1
2014-Oct-29 01:33N 34°41' E 135°12'0 0.0
2014-Oct-29 00:33N 34°41' E 135°12'2 2.0
2014-Oct-28 23:34N 34°42' E 135°14'3 2.8
2014-Oct-28 22:33N 34°41' E 135°18'2 1.9
2014-Oct-28 21:33N 34°42' E 135°16'3 3.0
2014-Oct-28 20:33N 34°41' E 135°12'3 0.2
2014-Oct-28 05:33N 34°42' E 135°15'2 2.2
2014-Oct-28 04:33N 34°40' E 135°15'1 1.3
2014-Oct-28 03:33N 34°41' E 135°15'0 0.3
2014-Oct-28 02:33N 34°41' E 135°15'0 0.0
2014-Oct-28 01:33N 34°41' E 135°15'0 0.3
2014-Oct-28 00:33N 34°41' E 135°15'2 1.8
2014-Oct-27 23:33N 34°41' E 135°17'2 1.5
2014-Oct-27 22:33N 34°40' E 135°18'5 4.9
2014-Oct-27 21:32N 34°41' E 135°12'0 0.0
2014-Oct-27 20:33N 34°41' E 135°12'0 0.0
2014-Oct-27 06:14N 34°41' E 135°12'0 0.0
2014-Oct-27 05:33N 34°41' E 135°12'0 0.0
2014-Oct-27 04:33N 34°41' E 135°12'0 0.0
2014-Oct-27 03:33N 34°41' E 135°12'0 0.0
2014-Oct-27 02:33N 34°41' E 135°12'0 0.1
2014-Oct-27 01:33N 34°41' E 135°12'3 2.6
2014-Oct-27 00:34N 34°40' E 135°15'1 1.0
2014-Oct-26 23:33N 34°40' E 135°14'0 0.4
2014-Oct-26 22:33N 34°40' E 135°14'1 0.7
2014-Oct-26 21:33N 34°41' E 135°14'1 1.3
2014-Oct-26 20:34N 34°41' E 135°12'0 0.0
2014-Oct-26 04:32N 34°41' E 135°12'3 3.0
2014-Oct-26 03:33N 34°42' E 135°16'2 2.2
2014-Oct-26 02:33N 34°41' E 135°18'4 4.5
2014-Oct-26 01:33N 34°41' E 135°12'0 0.2
2014-Oct-26 00:33N 34°41' E 135°12'0 0.0
2014-Oct-25 23:33N 34°41' E 135°12'  
2014-Oct-23 02:33N 34°41' E 135°12'0 0.0
2014-Oct-23 01:33N 34°41' E 135°12'0 0.5
2014-Oct-23 00:33N 34°41' E 135°13'2 1.7
2014-Oct-22 23:33N 34°40' E 135°15'2 2.1
2014-Oct-22 22:33N 34°41' E 135°12'0 0.0
2014-Oct-22 21:33N 34°41' E 135°12'0 0.0
2014-Oct-22 06:11N 34°41' E 135°12'0 0.0
2014-Oct-22 05:33N 34°41' E 135°12'1 1.3
2014-Oct-22 04:34N 34°41' E 135°14'3 3.4
2014-Oct-22 03:33N 34°41' E 135°18'3 2.8
2014-Oct-22 02:34N 34°41' E 135°15'2 1.9
2014-Oct-22 01:33N 34°41' E 135°12'0 0.0
2014-Oct-22 00:33N 34°41' E 135°12'0 0.0
2014-Oct-21 23:33N 34°41' E 135°12'2 1.9
2014-Oct-21 22:33N 34°40' E 135°14'0 0.5
2014-Oct-21 21:34N 34°40' E 135°14'2 1.9
2014-Oct-21 20:34N 34°41' E 135°12'3 0.3
2014-Oct-21 09:25N 34°41' E 135°16'1 1.5
2014-Oct-21 08:33N 34°42' E 135°16'3 2.9
2014-Oct-21 07:33N 34°41' E 135°13'0 0.0
2014-Oct-21 06:33N 34°41' E 135°13'  

Dump ship's entire track history